Time;durP1;ratioP1;P1;durP2;ratioP2;P2;SDS_P1;SDS_P2;PMS_P1;PMS_P2;Temp;Humidity;BMP_temperature;BMP_pressure;BME280_temperature;BME280_humidity;BME280_pressure;Samples;Min_cycle;Max_cycle;Signal;HPM_P1;HPM_P2
2022/09/03 00:00:22;;;;;;;1.20;1.10;;;22.50;56.30;;;;;;4957897;28;20470;-80
2022/09/03 00:03:00;;;;;;;1.20;1.10;;;22.50;56.40;;;;;;4962744;28;20475;-80
2022/09/03 00:05:38;;;;;;;1.20;1.10;;;22.50;55.80;;;;;;4963942;28;20490;-82
2022/09/03 00:08:12;;;;;;;1.27;1.17;;;22.50;57.80;;;;;;4959790;28;20463;-81
2022/09/03 00:10:46;;;;;;;1.30;1.20;;;22.50;57.30;;;;;;4961743;28;20691;-79
2022/09/03 00:13:19;;;;;;;1.30;1.20;;;22.50;55.50;;;;;;4950121;28;20463;-82
2022/09/03 00:15:51;;;;;;;1.33;1.30;;;22.50;55.60;;;;;;4952236;28;20831;-80
2022/09/03 00:18:22;;;;;;;1.97;1.03;;;22.50;56.00;;;;;;4946862;28;20461;-81
2022/09/03 00:20:56;;;;;;;2.50;1.20;;;22.50;61.90;;;;;;4960119;28;20533;-82
2022/09/03 00:23:27;;;;;;;1.30;1.20;;;22.50;57.50;;;;;;4957182;28;20520;-81
2022/09/03 00:26:03;;;;;;;2.00;1.20;;;22.50;59.70;;;;;;4963154;28;20488;-81
2022/09/03 00:28:38;;;;;;;3.40;1.20;;;22.50;61.80;;;;;;4949073;28;20549;-84
2022/09/03 00:31:17;;;;;;;1.40;1.30;;;22.50;95.10;;;;;;4960134;28;20982;-81
2022/09/03 00:33:48;;;;;;;1.30;1.20;;;22.00;61.20;;;;;;4956139;28;20458;-81
2022/09/03 00:36:21;;;;;;;1.40;1.13;;;22.50;68.40;;;;;;4959816;28;20480;-80
2022/09/03 00:38:49;;;;;;;1.20;1.10;;;22.40;65.20;;;;;;4967003;28;20452;-82
2022/09/03 00:41:30;;;;;;;3.00;0.97;;;22.40;67.50;;;;;;4973804;28;20459;-80
2022/09/03 00:44:14;;;;;;;1.47;1.20;;;22.40;57.20;;;;;;4971984;28;20465;-80
2022/09/03 00:46:52;;;;;;;1.17;1.10;;;22.40;57.00;;;;;;4952653;28;20500;-83
2022/09/03 00:49:33;;;;;;;1.37;1.00;;;22.40;77.40;;;;;;4953269;28;20456;-81
2022/09/03 00:52:12;;;;;;;1.20;1.10;;;22.40;64.00;;;;;;4968587;28;20468;-81
2022/09/03 00:54:48;;;;;;;1.20;1.10;;;22.40;60.70;;;;;;4961480;28;20475;-81
2022/09/03 00:57:30;;;;;;;1.50;1.40;;;22.40;60.00;;;;;;4958816;28;20475;-80
2022/09/03 01:00:06;;;;;;;1.27;1.17;;;22.40;59.20;;;;;;4958549;28;20461;-83
2022/09/03 01:02:49;;;;;;;1.30;1.20;;;22.90;66.30;;;;;;4969594;28;20485;-80
2022/09/03 01:05:33;;;;;;;1.03;1.03;;;22.40;59.50;;;;;;4953804;28;20516;-80
2022/09/03 01:08:14;;;;;;;1.10;1.00;;;22.50;60.70;;;;;;4959029;28;20509;-81
2022/09/03 01:10:53;;;;;;;2.10;1.20;;;22.50;59.30;;;;;;4960354;28;20445;-83
2022/09/03 01:13:26;;;;;;;2.07;1.40;;;22.50;61.20;;;;;;4959992;28;20471;-81
2022/09/03 01:16:09;;;;;;;2.17;1.30;;;22.50;58.80;;;;;;4958909;28;20552;-80
2022/09/03 01:18:48;;;;;;;1.10;1.10;;;22.50;58.00;;;;;;4961229;28;20458;-80
2022/09/03 01:21:43;;;;;;;1.40;1.30;;;22.50;64.10;;;;;;4954428;28;20525;-80
2022/09/03 01:24:30;;;;;;;1.03;1.00;;;22.50;57.70;;;;;;4959680;28;20469;-81
2022/09/03 01:27:30;;;;;;;2.83;1.03;;;22.40;57.70;;;;;;4963172;28;20496;-80
2022/09/03 01:30:04;;;;;;;1.20;1.10;;;22.40;59.10;;;;;;4960813;28;20479;-80
2022/09/03 01:32:41;;;;;;;0.90;0.90;;;22.40;61.60;;;;;;4966372;28;20532;-79
2022/09/03 01:35:18;;;;;;;1.00;1.00;;;22.40;59.00;;;;;;4947046;28;20520;-78
2022/09/03 01:38:01;;;;;;;1.30;1.20;;;22.30;60.90;;;;;;4948501;28;20496;-80
2022/09/03 01:40:40;;;;;;;1.40;1.30;;;22.30;58.90;;;;;;4961256;28;20458;-84
2022/09/03 01:43:31;;;;;;;2.73;1.10;;;22.30;58.90;;;;;;4954914;28;20501;-80
2022/09/03 01:46:12;;;;;;;2.27;1.23;;;22.30;56.60;;;;;;4952019;28;20495;-79
2022/09/03 01:48:48;;;;;;;1.07;0.97;;;22.30;61.10;;;;;;4955696;28;20463;-79
2022/09/03 01:51:22;;;;;;;1.20;1.10;;;22.30;60.80;;;;;;4954320;28;20975;-83
2022/09/03 01:54:20;;;;;;;1.20;1.07;;;22.30;62.10;;;;;;4960590;28;20467;-81
2022/09/03 01:57:28;;;;;;;1.53;1.00;;;22.30;60.80;;;;;;4963630;28;21074;-79
2022/09/03 02:00:08;;;;;;;1.43;1.10;;;22.30;57.40;;;;;;4926087;28;20550;-80
2022/09/03 02:02:37;;;;;;;1.77;1.00;;;22.30;58.10;;;;;;4959075;28;20470;-79
2022/09/03 02:05:09;;;;;;;1.33;1.17;;;22.30;66.30;;;;;;4948039;28;20459;-79
2022/09/03 02:07:41;;;;;;;1.23;1.10;;;22.30;58.70;;;;;;4960054;28;20864;-82
2022/09/03 02:10:13;;;;;;;3.03;1.10;;;22.30;59.00;;;;;;4957564;28;20460;-80
2022/09/03 02:12:45;;;;;;;0.90;0.90;;;22.30;57.70;;;;;;4971394;28;20463;-80
2022/09/03 02:15:16;;;;;;;1.20;1.10;;;22.30;57.10;;;;;;4954981;28;20454;-79
2022/09/03 02:17:49;;;;;;;0.90;0.90;;;22.30;57.30;;;;;;4968669;28;20460;-81
2022/09/03 02:20:21;;;;;;;1.47;1.37;;;22.30;59.10;;;;;;4957461;28;20957;-79
2022/09/03 02:22:51;;;;;;;1.53;1.10;;;22.30;60.20;;;;;;4954655;28;20446;-79
2022/09/03 02:25:19;;;;;;;1.77;1.30;;;22.30;69.10;;;;;;4947419;28;20460;-79
2022/09/03 02:27:49;;;;;;;2.00;1.37;;;22.20;68.70;;;;;;4949343;28;20600;-80
2022/09/03 02:30:17;;;;;;;0.93;0.93;;;22.30;58.10;;;;;;4959229;28;20837;-80
2022/09/03 02:32:47;;;;;;;1.17;1.03;;;22.30;60.00;;;;;;4951319;28;20525;-80
2022/09/03 02:35:15;;;;;;;1.23;1.13;;;22.20;60.10;;;;;;4950624;28;20457;-80
2022/09/03 02:37:44;;;;;;;1.17;1.07;;;22.20;63.60;;;;;;4953326;28;20514;-82
2022/09/03 02:40:12;;;;;;;2.60;1.20;;;22.30;94.30;;;;;;4971559;28;20506;-84
2022/09/03 02:42:40;;;;;;;2.03;1.83;;;22.20;81.80;;;;;;4961489;28;20477;-83
2022/09/03 02:45:19;;;;;;;1.53;1.10;;;22.20;66.80;;;;;;4957974;28;20468;-80
2022/09/03 02:47:52;;;;;;;1.17;1.07;;;22.20;59.60;;;;;;4956634;28;20554;-81
2022/09/03 02:50:21;;;;;;;1.50;1.40;;;22.20;63.40;;;;;;4956011;28;20455;-80
2022/09/03 02:52:49;;;;;;;1.20;1.17;;;22.20;66.30;;;;;;4958532;28;20452;-80
2022/09/03 02:55:18;;;;;;;1.40;1.30;;;22.20;77.20;;;;;;4968885;28;20482;-81
2022/09/03 02:57:46;;;;;;;1.50;1.40;;;22.20;90.80;;;;;;4959592;28;20457;-80
2022/09/03 03:00:15;;;;;;;1.20;1.10;;;22.10;93.50;;;;;;4961224;28;20462;-82
2022/09/03 03:02:45;;;;;;;1.20;1.10;;;22.10;71.80;;;;;;4960953;28;20816;-81
2022/09/03 03:05:23;;;;;;;1.33;1.23;;;22.10;84.50;;;;;;4948590;28;20485;-83
2022/09/03 03:07:51;;;;;;;1.40;1.30;;;22.10;67.60;;;;;;4955804;28;20483;-81
2022/09/03 03:10:20;;;;;;;1.50;1.40;;;22.00;69.60;;;;;;4950711;28;20457;-80
2022/09/03 03:12:48;;;;;;;2.00;1.30;;;22.00;71.50;;;;;;4940299;28;20468;-79
2022/09/03 03:15:18;;;;;;;1.60;1.50;;;22.10;90.50;;;;;;4952625;28;20471;-80
2022/09/03 03:17:46;;;;;;;1.63;1.10;;;22.20;86.10;;;;;;4957828;28;20532;-80
2022/09/03 03:20:16;;;;;;;1.40;1.30;;;22.10;88.20;;;;;;4948697;28;20452;-80
2022/09/03 03:22:44;;;;;;;1.60;1.50;;;22.10;88.70;;;;;;4940287;28;20472;-80
2022/09/03 03:25:12;;;;;;;1.67;1.57;;;22.10;87.70;;;;;;4941301;28;21200;-83
2022/09/03 03:27:41;;;;;;;2.00;1.70;;;22.10;78.10;;;;;;4946460;28;20491;-82
2022/09/03 03:30:11;;;;;;;4.23;1.53;;;22.10;90.50;;;;;;4957226;28;20456;-81
2022/09/03 03:32:39;;;;;;;1.50;1.40;;;22.10;73.80;;;;;;4950168;28;20480;-80
2022/09/03 03:35:10;;;;;;;2.43;1.40;;;22.10;72.10;;;;;;4950033;28;20455;-80
2022/09/03 03:37:40;;;;;;;1.87;1.70;;;22.10;73.60;;;;;;4948007;28;21273;-81
2022/09/03 03:40:09;;;;;;;1.50;1.40;;;22.10;91.70;;;;;;4954905;28;20457;-81
2022/09/03 03:42:38;;;;;;;1.70;1.60;;;22.10;74.30;;;;;;4955452;28;20452;-82
2022/09/03 03:45:08;;;;;;;1.83;1.40;;;22.10;73.80;;;;;;4954341;28;20559;-84
2022/09/03 03:47:37;;;;;;;1.67;1.57;;;22.10;98.30;;;;;;4956998;28;20577;-81
2022/09/03 03:50:06;;;;;;;2.30;1.57;;;22.10;96.70;;;;;;4959927;28;20472;-82
2022/09/03 03:52:34;;;;;;;1.70;1.60;;;22.00;76.10;;;;;;4960396;28;20459;-82
2022/09/03 03:55:05;;;;;;;1.50;1.30;;;22.00;99.40;;;;;;4951181;28;20465;-81
2022/09/03 03:57:33;;;;;;;1.40;1.30;;;22.00;75.30;;;;;;4954991;28;21078;-80
2022/09/03 04:00:02;;;;;;;1.77;1.67;;;22.00;81.80;;;;;;4957182;28;20468;-79
2022/09/03 04:02:33;;;;;;;1.73;1.47;;;22.00;81.90;;;;;;4949724;28;20448;-84
2022/09/03 04:05:06;;;;;;;2.03;1.60;;;22.00;77.40;;;;;;4951718;28;20479;-81
2022/09/03 04:07:35;;;;;;;1.90;1.73;;;22.10;77.40;;;;;;4945080;28;20485;-82
2022/09/03 04:10:06;;;;;;;2.70;1.40;;;22.10;83.00;;;;;;4956707;28;20483;-80
2022/09/03 04:12:34;;;;;;;1.83;1.73;;;22.10;79.20;;;;;;4959471;28;20488;-80
2022/09/03 04:15:02;;;;;;;1.60;1.50;;;21.90;85.10;;;;;;4948449;28;21031;-81
2022/09/03 04:17:30;;;;;;;2.77;1.57;;;21.80;96.10;;;;;;4958618;28;21092;-82
2022/09/03 04:19:58;;;;;;;1.80;1.70;;;21.90;88.20;;;;;;4948096;28;20450;-80
2022/09/03 04:22:29;;;;;;;1.73;1.63;;;21.90;87.90;;;;;;4954953;28;20962;-80
2022/09/03 04:24:57;;;;;;;5.37;1.93;;;21.90;90.00;;;;;;4948696;28;20959;-79
2022/09/03 04:27:27;;;;;;;2.03;1.83;;;21.90;92.70;;;;;;4953064;28;20488;-80
2022/09/03 04:29:55;;;;;;;1.90;1.80;;;21.90;94.70;;;;;;4955067;28;20465;-80
2022/09/03 04:35:09;;;;;;;1.97;1.70;;;22.00;93.00;;;;;;4959045;28;20458;-81
2022/09/03 04:37:37;;;;;;;2.00;1.80;;;22.00;90.60;;;;;;4950947;28;20858;-80
2022/09/03 04:40:07;;;;;;;2.50;2.30;;;22.00;91.00;;;;;;4961427;28;20468;-80
2022/09/03 04:42:36;;;;;;;1.97;1.87;;;22.00;90.20;;;;;;4953467;28;20462;-79
2022/09/03 04:45:05;;;;;;;2.10;1.80;;;22.00;92.30;;;;;;4963461;28;20970;-83
2022/09/03 04:47:35;;;;;;;2.20;2.00;;;21.90;92.10;;;;;;4950626;28;20480;-80
2022/09/03 04:50:04;;;;;;;2.10;2.00;;;21.80;97.10;;;;;;4957305;28;20460;-83
2022/09/03 04:52:32;;;;;;;1.50;1.40;;;21.80;94.30;;;;;;4959223;28;21025;-83
2022/09/03 04:55:01;;;;;;;2.30;1.90;;;21.70;96.00;;;;;;4958980;28;20455;-82
2022/09/03 04:57:33;;;;;;;1.97;1.87;;;21.70;99.20;;;;;;4974216;28;20988;-81
2022/09/03 05:00:03;;;;;;;2.00;1.90;;;21.80;98.80;;;;;;4966681;28;20461;-83
2022/09/03 05:02:31;;;;;;;2.17;1.97;;;21.80;98.10;;;;;;4960853;28;20463;-82
2022/09/03 05:04:59;;;;;;;2.77;2.47;;;21.80;99.90;;;;;;4953376;28;20455;-80
2022/09/03 05:07:37;;;;;;;2.60;1.97;;;21.70;99.90;;;;;;4957591;28;20521;-80
2022/09/03 05:10:07;;;;;;;2.10;1.90;;;21.60;99.90;;;;;;4954414;28;20465;-80
2022/09/03 05:12:35;;;;;;;2.70;2.40;;;21.60;99.90;;;;;;4968053;28;20537;-80
2022/09/03 05:15:06;;;;;;;2.30;2.10;;;21.60;99.90;;;;;;4950641;28;20464;-80
2022/09/03 05:17:34;;;;;;;1.93;1.83;;;21.70;99.90;;;;;;4959825;28;20471;-81
2022/09/03 05:20:06;;;;;;;2.03;1.83;;;21.80;99.90;;;;;;4956126;28;21123;-80
2022/09/03 05:22:34;;;;;;;2.70;2.43;;;21.80;99.90;;;;;;4957351;28;20495;-82
2022/09/03 05:25:02;;;;;;;2.20;2.10;;;21.90;99.90;;;;;;4957692;28;20556;-82
2022/09/03 05:27:32;;;;;;;2.60;2.40;;;21.90;99.90;;;;;;4949414;28;20520;-83
2022/09/03 05:30:00;;;;;;;2.30;2.10;;;21.90;99.90;;;;;;4961046;28;20468;-80
2022/09/03 05:32:32;;;;;;;2.50;2.30;;;21.80;99.90;;;;;;4948222;28;20456;-80
2022/09/03 05:35:00;;;;;;;2.43;2.33;;;21.80;99.90;;;;;;4944620;28;20468;-81
2022/09/03 05:37:28;;;;;;;1.93;1.80;;;21.80;99.90;;;;;;4948608;28;21042;-79
2022/09/03 05:39:56;;;;;;;2.10;2.00;;;21.80;99.90;;;;;;4948067;28;20460;-80
2022/09/03 05:42:24;;;;;;;2.27;2.07;;;21.70;99.90;;;;;;4947675;28;20457;-81
2022/09/03 05:44:53;;;;;;;2.53;1.93;;;21.60;99.90;;;;;;4950110;28;20868;-80
2022/09/03 05:47:21;;;;;;;2.50;2.30;;;21.60;99.90;;;;;;4957124;28;20479;-81
2022/09/03 05:49:51;;;;;;;2.60;2.33;;;21.50;99.90;;;;;;4961127;28;20510;-83
2022/09/03 05:52:20;;;;;;;3.17;2.90;;;21.50;99.90;;;;;;4961631;28;20496;-83
2022/09/03 05:54:48;;;;;;;2.77;2.47;;;21.60;99.90;;;;;;4943921;28;20457;-81
2022/09/03 05:57:16;;;;;;;3.03;2.70;;;21.80;99.90;;;;;;4950635;28;20564;-82
2022/09/03 05:59:44;;;;;;;2.73;2.53;;;21.70;99.90;;;;;;4948973;28;20986;-82
2022/09/03 06:02:12;;;;;;;2.20;2.10;;;21.50;99.90;;;;;;4954884;28;20457;-81
2022/09/03 06:04:41;;;;;;;2.47;2.20;;;21.60;99.90;;;;;;4950813;28;20460;-81
2022/09/03 06:07:11;;;;;;;2.20;2.00;;;21.70;99.90;;;;;;4952994;28;20484;-79
2022/09/03 06:09:39;;;;;;;2.80;2.60;;;21.80;99.90;;;;;;4963624;28;20852;-81
2022/09/03 06:12:07;;;;;;;2.17;1.97;;;21.80;99.90;;;;;;4960858;28;20461;-80
2022/09/03 06:14:35;;;;;;;2.10;2.00;;;21.80;99.90;;;;;;4951009;28;20469;-81
2022/09/03 06:17:04;;;;;;;2.27;2.17;;;21.90;99.90;;;;;;4961368;28;20995;-81
2022/09/03 06:19:32;;;;;;;2.93;2.73;;;21.80;99.90;;;;;;4945709;28;20523;-81
2022/09/03 06:22:00;;;;;;;2.47;2.27;;;21.80;99.90;;;;;;4958447;28;20473;-81
2022/09/03 06:24:29;;;;;;;2.87;2.60;;;21.90;99.90;;;;;;4956252;28;20471;-80
2022/09/03 06:27:00;;;;;;;2.33;1.90;;;22.00;99.90;;;;;;4951495;28;20491;-81
2022/09/03 06:29:29;;;;;;;2.60;2.40;;;21.90;99.90;;;;;;4950629;28;20536;-82
2022/09/03 06:31:58;;;;;;;3.07;2.77;;;21.90;99.90;;;;;;4957814;28;20465;-81
2022/09/03 06:34:27;;;;;;;2.83;2.63;;;21.80;99.90;;;;;;4958807;28;20452;-82
2022/09/03 06:36:55;;;;;;;2.97;2.77;;;21.90;99.90;;;;;;4951365;28;21195;-82
2022/09/03 06:39:24;;;;;;;2.30;2.20;;;22.00;99.90;;;;;;4953964;28;20445;-84
2022/09/03 06:41:54;;;;;;;2.30;2.20;;;22.00;99.90;;;;;;4968054;28;20462;-82
2022/09/03 06:44:22;;;;;;;2.70;2.50;;;22.00;99.90;;;;;;4950820;28;20521;-82
2022/09/03 06:46:52;;;;;;;2.73;2.53;;;22.00;99.90;;;;;;4947466;28;20476;-83
2022/09/03 06:49:20;;;;;;;2.50;2.40;;;22.10;99.90;;;;;;4943772;28;20480;-83
2022/09/03 06:51:48;;;;;;;4.13;2.87;;;22.10;99.90;;;;;;4940306;28;20448;-80
2022/09/03 06:54:16;;;;;;;2.83;2.63;;;22.20;99.90;;;;;;4949784;28;20462;-82
2022/09/03 06:56:44;;;;;;;2.10;2.00;;;22.20;99.90;;;;;;4963389;28;20545;-82
2022/09/03 06:59:15;;;;;;;2.17;2.07;;;22.30;99.90;;;;;;4957132;28;20454;-81
2022/09/03 07:01:44;;;;;;;2.60;2.40;;;22.30;99.90;;;;;;4951386;28;20885;-81
2022/09/03 07:04:15;;;;;;;2.60;2.50;;;22.40;99.90;;;;;;4960114;28;20997;-78
2022/09/03 07:06:46;;;;;;;2.30;2.10;;;22.40;99.90;;;;;;4956423;28;20555;-75
2022/09/03 07:09:17;;;;;;;2.73;2.53;;;22.30;99.90;;;;;;4948286;28;21246;-77
2022/09/03 07:11:46;;;;;;;3.13;2.57;;;22.40;99.90;;;;;;4951667;28;20492;-77
2022/09/03 07:14:18;;;;;;;2.77;2.57;;;22.30;99.90;;;;;;4959775;28;20506;-76
2022/09/03 07:16:48;;;;;;;2.43;2.23;;;22.40;99.90;;;;;;4951549;28;20468;-76
2022/09/03 07:19:16;;;;;;;2.53;2.33;;;22.30;99.90;;;;;;4945543;28;20452;-80
2022/09/03 07:21:45;;;;;;;2.90;2.70;;;22.40;99.90;;;;;;4950934;28;20447;-81
2022/09/03 07:24:20;;;;;;;2.17;1.97;;;22.40;99.90;;;;;;4936816;29;20454;-80
2022/09/03 07:26:49;;;;;;;2.67;2.47;;;22.50;99.90;;;;;;4950194;28;20490;-80
2022/09/03 07:29:19;;;;;;;1.60;1.50;;;22.60;99.90;;;;;;4952316;28;20473;-81
2022/09/03 07:31:50;;;;;;;2.40;2.20;;;22.60;99.90;;;;;;4954693;28;20892;-81
2022/09/03 07:34:22;;;;;;;3.33;2.60;;;22.60;99.90;;;;;;4960365;28;20470;-81
2022/09/03 07:36:52;;;;;;;2.40;2.20;;;22.60;99.90;;;;;;4948646;28;20510;-82
2022/09/03 07:39:21;;;;;;;2.30;2.10;;;22.60;99.90;;;;;;4950590;28;20961;-83
2022/09/03 07:41:49;;;;;;;2.50;2.30;;;22.60;99.90;;;;;;4953195;28;20490;-82
2022/09/03 07:44:19;;;;;;;2.27;2.07;;;22.60;99.90;;;;;;4957260;28;20789;-83
2022/09/03 07:46:49;;;;;;;2.33;2.13;;;22.60;99.90;;;;;;4955544;28;20474;-81
2022/09/03 07:49:19;;;;;;;2.17;1.97;;;22.60;99.90;;;;;;4957525;28;20482;-82
2022/09/03 07:51:49;;;;;;;3.00;2.77;;;22.70;99.90;;;;;;4956408;28;20461;-84
2022/09/03 07:54:19;;;;;;;1.93;1.83;;;22.80;99.90;;;;;;4947857;28;20507;-84
2022/09/03 07:56:47;;;;;;;2.87;2.67;;;22.80;99.90;;;;;;4952086;28;20473;-81
2022/09/03 07:59:15;;;;;;;2.70;2.50;;;22.80;99.90;;;;;;4953703;28;20455;-83
2022/09/03 08:01:45;;;;;;;3.00;2.80;;;22.90;99.90;;;;;;4950299;28;20451;-83
2022/09/03 08:04:13;;;;;;;2.47;2.27;;;22.90;99.90;;;;;;4951641;28;20464;-82
2022/09/03 08:06:42;;;;;;;2.00;1.90;;;23.00;99.90;;;;;;4954188;28;20484;-81
2022/09/03 08:09:12;;;;;;;1.93;1.83;;;23.00;99.90;;;;;;4952623;28;20494;-80
2022/09/03 08:11:42;;;;;;;1.87;1.77;;;23.10;99.90;;;;;;4953729;28;20464;-83
2022/09/03 08:14:12;;;;;;;1.80;1.70;;;23.20;99.90;;;;;;4940500;28;20458;-81
2022/09/03 08:16:42;;;;;;;1.93;1.73;;;23.20;99.90;;;;;;4944926;28;20480;-81
2022/09/03 08:19:12;;;;;;;2.30;2.10;;;23.30;99.90;;;;;;4949874;28;20502;-81
2022/09/03 08:21:41;;;;;;;3.97;2.47;;;23.40;99.90;;;;;;4942607;28;20839;-82
2022/09/03 08:24:10;;;;;;;2.03;1.93;;;23.40;99.90;;;;;;4943464;28;20973;-81
2022/09/03 08:26:40;;;;;;;1.80;1.70;;;23.40;99.90;;;;;;4945739;28;20495;-81
2022/09/03 08:29:10;;;;;;;2.00;1.90;;;23.40;99.90;;;;;;4949699;28;20462;-82
2022/09/03 08:31:38;;;;;;;3.63;2.37;;;23.50;99.90;;;;;;4947841;28;20460;-83
2022/09/03 08:34:09;;;;;;;2.17;2.07;;;23.60;99.90;;;;;;4946364;28;20469;-83
2022/09/03 08:36:40;;;;;;;2.23;2.03;;;23.60;99.90;;;;;;4949404;28;20471;-83
2022/09/03 08:39:10;;;;;;;3.63;3.00;;;23.70;99.90;;;;;;4945820;28;20462;-84
2022/09/03 08:42:02;;;;;;;2.23;2.10;;;23.70;99.90;;;;;;4951354;28;20447;-82
2022/09/03 08:44:38;;;;;;;1.83;1.73;;;23.70;99.90;;;;;;4950538;28;20528;-83
2022/09/03 08:47:12;;;;;;;1.70;1.60;;;23.70;99.90;;;;;;4954489;28;20505;-83
2022/09/03 08:49:48;;;;;;;1.70;1.60;;;23.70;99.90;;;;;;4953586;28;20543;-82
2022/09/03 08:52:25;;;;;;;3.87;2.03;;;23.70;99.90;;;;;;4960851;28;20476;-82
2022/09/03 08:55:02;;;;;;;2.53;1.90;;;23.80;99.90;;;;;;4954180;28;20463;-83
2022/09/03 08:57:37;;;;;;;1.60;1.50;;;23.80;99.90;;;;;;4954763;28;20479;-82
2022/09/03 09:00:06;;;;;;;1.80;1.70;;;23.80;99.90;;;;;;4962060;28;20588;-83
2022/09/03 09:02:46;;;;;;;3.43;1.60;;;23.80;99.90;;;;;;4953509;28;20450;-83
2022/09/03 09:05:21;;;;;;;1.70;1.60;;;23.80;99.90;;;;;;4944387;28;20455;-83
2022/09/03 09:08:02;;;;;;;1.50;1.40;;;23.80;99.90;;;;;;4972638;28;21035;-82
2022/09/03 09:10:37;;;;;;;1.70;1.50;;;23.80;99.90;;;;;;4956258;28;20474;-83
2022/09/03 09:13:16;;;;;;;1.63;1.53;;;24.00;99.90;;;;;;4946108;28;20846;-84
2022/09/03 09:15:54;;;;;;;2.23;2.13;;;24.00;99.90;;;;;;4946714;28;20543;-83
2022/09/03 09:18:34;;;;;;;1.80;1.70;;;24.00;99.90;;;;;;4953211;28;21146;-82
2022/09/03 09:21:10;;;;;;;1.60;1.50;;;23.90;99.90;;;;;;4953229;28;20451;-83
2022/09/03 09:23:44;;;;;;;1.77;1.67;;;23.90;99.90;;;;;;4944119;28;20547;-84
2022/09/03 09:26:16;;;;;;;2.10;1.93;;;24.00;99.90;;;;;;4955497;28;20518;-84
2022/09/03 09:28:46;;;;;;;2.07;1.77;;;24.10;99.90;;;;;;4966001;28;20523;-83
2022/09/03 09:31:19;;;;;;;2.57;1.53;;;24.10;99.90;;;;;;4955027;28;20482;-84
2022/09/03 09:33:47;;;;;;;1.67;1.57;;;24.20;99.90;;;;;;4952159;28;20453;-82
2022/09/03 09:36:18;;;;;;;2.10;1.67;;;24.20;99.90;;;;;;4950450;28;20854;-82
2022/09/03 09:38:48;;;;;;;2.33;1.90;;;24.30;99.90;;;;;;4952473;28;20450;-83
2022/09/03 09:41:18;;;;;;;1.60;1.50;;;24.30;99.90;;;;;;4952138;28;20456;-83
2022/09/03 09:43:48;;;;;;;1.70;1.60;;;24.30;99.90;;;;;;4958622;28;20445;-83
2022/09/03 09:46:21;;;;;;;2.13;1.97;;;24.40;99.90;;;;;;4950775;28;20475;-83
2022/09/03 09:48:52;;;;;;;2.07;1.97;;;24.40;99.90;;;;;;4946112;28;20478;-81
2022/09/03 09:51:23;;;;;;;1.70;1.60;;;24.50;99.90;;;;;;4943378;28;20500;-81
2022/09/03 09:54:04;;;;;;;1.80;1.60;;;24.50;99.90;;;;;;4946068;28;20451;-81
2022/09/03 09:56:32;;;;;;;1.90;1.77;;;24.50;99.90;;;;;;4939795;28;20483;-81
2022/09/03 09:59:05;;;;;;;1.83;1.70;;;24.50;99.90;;;;;;4944420;28;20472;-81
2022/09/03 10:01:34;;;;;;;1.70;1.60;;;24.40;99.90;;;;;;4951339;28;20945;-79
2022/09/03 10:04:11;;;;;;;1.60;1.50;;;24.40;99.90;;;;;;4949214;28;20464;-81
2022/09/03 10:06:55;;;;;;;1.60;1.50;;;24.40;99.90;;;;;;4945288;28;21478;-80
2022/09/03 10:09:27;;;;;;;1.90;1.80;;;24.40;99.90;;;;;;4948390;28;20832;-81
2022/09/03 10:12:13;;;;;;;1.83;1.73;;;24.40;99.90;;;;;;4950613;28;20491;-80
2022/09/03 10:14:47;;;;;;;2.23;1.83;;;24.40;99.90;;;;;;4943264;28;20455;-81
2022/09/03 10:17:21;;;;;;;1.80;1.70;;;24.50;99.90;;;;;;4945606;28;20487;-80
2022/09/03 10:22:54;;;;;;;2.27;2.07;;;24.60;99.90;;;;;;4943755;28;20472;-80
2022/09/03 10:25:31;;;;;;;2.57;1.97;;;24.70;99.90;;;;;;4947377;28;20453;-81
2022/09/03 10:28:00;;;;;;;2.00;1.90;;;24.80;99.90;;;;;;4951394;28;20474;-81
2022/09/03 10:30:38;;;;;;;1.80;1.70;;;24.80;99.90;;;;;;4946640;28;20476;-81
2022/09/03 10:33:15;;;;;;;1.83;1.70;;;24.90;99.90;;;;;;4953443;28;20463;-82
2022/09/03 10:35:46;;;;;;;2.03;1.90;;;24.90;99.90;;;;;;4946087;28;20488;-82
2022/09/03 10:38:21;;;;;;;2.73;1.87;;;24.90;99.90;;;;;;4947132;28;20503;-82
2022/09/03 10:41:01;;;;;;;2.17;1.97;;;24.90;99.90;;;;;;4948113;28;20490;-82
2022/09/03 10:44:02;;;;;;;2.00;1.83;;;25.00;99.90;;;;;;4944994;28;20467;-82
2022/09/03 10:46:43;;;;;;;1.80;1.70;;;25.00;99.90;;;;;;4942255;28;20487;-82
2022/09/03 10:49:29;;;;;;;3.63;2.23;;;25.10;99.90;;;;;;4951407;28;21002;-81
2022/09/03 10:52:03;;;;;;;3.00;2.00;;;25.00;99.90;;;;;;4950959;28;20487;-82
2022/09/03 10:54:45;;;;;;;3.80;2.80;;;25.00;99.90;;;;;;4950945;28;20503;-82
2022/09/03 10:57:25;;;;;;;2.40;2.20;;;25.00;99.90;;;;;;4951655;28;20548;-82
2022/09/03 11:00:05;;;;;;;3.57;2.03;;;25.00;99.90;;;;;;4955220;28;20558;-82
2022/09/03 11:02:58;;;;;;;3.37;1.90;;;25.00;99.90;;;;;;4945206;28;20827;-82
2022/09/03 11:05:31;;;;;;;1.90;1.80;;;25.00;99.90;;;;;;4956231;28;20466;-81
2022/09/03 11:08:05;;;;;;;2.00;1.90;;;25.00;99.90;;;;;;4966716;28;20466;-81
2022/09/03 11:10:39;;;;;;;1.73;1.63;;;25.00;99.90;;;;;;4944236;28;20574;-82
2022/09/03 11:13:14;;;;;;;2.10;2.00;;;25.00;99.90;;;;;;4947914;28;20466;-81
2022/09/03 11:15:48;;;;;;;2.57;1.80;;;25.00;99.90;;;;;;4948804;28;20471;-81
2022/09/03 11:18:22;;;;;;;2.43;2.07;;;24.90;99.90;;;;;;4957700;28;20466;-81
2022/09/03 11:20:54;;;;;;;2.13;2.00;;;24.90;99.90;;;;;;4954970;28;20455;-82
2022/09/03 11:23:26;;;;;;;2.30;2.20;;;24.90;99.90;;;;;;4944180;28;20805;-81
2022/09/03 11:26:01;;;;;;;2.50;2.30;;;24.90;99.90;;;;;;4943207;28;20573;-81
2022/09/03 11:28:44;;;;;;;2.00;1.90;;;24.90;99.90;;;;;;4944100;28;20959;-82
2022/09/03 11:31:26;;;;;;;2.57;2.47;;;24.90;99.90;;;;;;4948580;28;20483;-81
2022/09/03 11:34:00;;;;;;;2.20;2.10;;;24.90;99.90;;;;;;4945903;28;20466;-81
2022/09/03 11:36:32;;;;;;;2.43;2.33;;;24.80;99.90;;;;;;4944377;28;20529;-81
2022/09/03 11:39:01;;;;;;;2.50;2.13;;;24.80;99.90;;;;;;4952598;28;20493;-81
2022/09/03 11:41:34;;;;;;;2.20;2.00;;;24.80;99.90;;;;;;4947756;28;21041;-81
2022/09/03 11:44:18;;;;;;;2.00;1.90;;;24.80;99.90;;;;;;4946012;28;21004;-82
2022/09/03 11:46:55;;;;;;;2.50;2.40;;;24.70;99.90;;;;;;4951672;28;20732;-79
2022/09/03 11:49:29;;;;;;;2.17;2.07;;;24.70;99.90;;;;;;4957469;28;20888;-81
2022/09/03 11:52:00;;;;;;;2.57;2.40;;;24.70;99.90;;;;;;4948184;28;20482;-82
2022/09/03 11:54:33;;;;;;;2.60;2.23;;;24.60;99.90;;;;;;4955427;28;20462;-83
2022/09/03 11:57:12;;;;;;;4.87;2.47;;;24.00;99.90;;;;;;4957134;28;20490;-81
2022/09/03 11:59:42;;;;;;;2.20;2.10;;;24.60;99.90;;;;;;4949981;28;20469;-82
2022/09/03 12:02:23;;;;;;;3.47;2.27;;;24.50;99.90;;;;;;4953439;28;21058;-83
2022/09/03 12:05:11;;;;;;;3.20;1.80;;;24.10;99.90;;;;;;4946933;28;20452;-81
2022/09/03 12:07:48;;;;;;;3.50;1.77;;;23.80;99.90;;;;;;4950291;28;20524;-81
2022/09/03 12:10:27;;;;;;;3.43;1.43;;;23.30;99.90;;;;;;4951699;28;20461;-81
2022/09/03 12:13:09;;;;;;;3.40;1.80;;;23.30;99.90;;;;;;4953814;28;20858;-82
2022/09/03 12:15:58;;;;;;;2.53;1.50;;;23.20;99.90;;;;;;4956147;28;20485;-82
2022/09/03 12:18:31;;;;;;;1.80;1.40;;;23.10;99.90;;;;;;4941787;28;20449;-82
2022/09/03 12:21:04;;;;;;;3.40;1.00;;;22.90;99.90;;;;;;4954120;28;20534;-82
2022/09/03 12:23:34;;;;;;;1.60;1.10;;;22.90;99.90;;;;;;4947094;28;20643;-81
2022/09/03 12:26:05;;;;;;;1.10;1.00;;;22.60;99.90;;;;;;4953240;28;20581;-80
2022/09/03 12:28:37;;;;;;;3.10;1.00;;;22.70;99.90;;;;;;4961599;28;20457;-81
2022/09/03 12:31:28;;;;;;;1.20;1.10;;;22.70;99.90;;;;;;4944512;29;20831;-82
2022/09/03 12:33:58;;;;;;;1.73;1.10;;;22.80;99.90;;;;;;4960284;28;20467;-82
2022/09/03 12:36:35;;;;;;;1.20;1.10;;;22.90;99.90;;;;;;4956511;28;20533;-81
2022/09/03 12:39:09;;;;;;;1.20;1.10;;;22.90;99.90;;;;;;4960495;28;20478;-83
2022/09/03 12:41:56;;;;;;;2.50;1.20;;;22.90;99.90;;;;;;4954884;28;20514;-84
2022/09/03 12:44:27;;;;;;;3.27;1.23;;;22.90;99.90;;;;;;4950782;28;20451;-84
2022/09/03 12:47:03;;;;;;;0.93;0.83;;;22.90;99.90;;;;;;4952776;28;20550;-82
2022/09/03 12:49:56;;;;;;;0.70;0.70;;;22.90;99.90;;;;;;4951683;28;20470;-83
2022/09/03 12:52:28;;;;;;;1.13;1.00;;;22.90;99.90;;;;;;4958409;28;20491;-82
2022/09/03 12:55:00;;;;;;;0.90;0.90;;;22.90;99.90;;;;;;4960905;28;20466;-83
2022/09/03 12:57:34;;;;;;;1.13;1.03;;;22.90;99.90;;;;;;4956765;28;21014;-82
2022/09/03 13:00:07;;;;;;;1.00;1.00;;;22.90;99.90;;;;;;4942542;28;20516;-84
2022/09/03 13:02:45;;;;;;;1.17;1.07;;;22.90;99.90;;;;;;4957837;28;20969;-83
2022/09/03 13:05:17;;;;;;;2.00;0.90;;;22.90;99.90;;;;;;4952257;28;20809;-83
2022/09/03 13:07:50;;;;;;;3.47;1.17;;;22.80;99.90;;;;;;4942454;28;20463;-83
2022/09/03 13:10:26;;;;;;;2.20;0.90;;;22.90;99.90;;;;;;4949096;28;20467;-82
2022/09/03 13:12:59;;;;;;;0.97;0.80;;;22.90;99.90;;;;;;4961510;28;20484;-81
2022/09/03 13:15:29;;;;;;;0.80;0.80;;;22.90;99.90;;;;;;4950170;28;20460;-83
2022/09/03 13:18:21;;;;;;;1.37;0.80;;;22.90;99.90;;;;;;4945273;28;20444;-83
2022/09/03 13:21:03;;;;;;;1.27;0.70;;;22.80;99.90;;;;;;4945150;28;20516;-84
2022/09/03 13:23:57;;;;;;;2.50;0.80;;;22.80;99.90;;;;;;4940024;28;20455;-83